Dunbarton, South Carolina
Current Conditions -  °F | °C
As of 5:35 AM on Wednesday 26 Nov 2014 (Local Time) from KBNL Reporting Station
NA  
Wind Chill: 50°   Ceiling: NA
Heat Index: 50°   Visibility: NA
Dew Point: 48°   Wind: 9mph
Humidity: 94%   Direction: 340°NNW
Pressure: 29.9"   Gusts: NA
Location:  33.2653°N, 81.6553°W
Report Text: KBNL 261035Z AUTO 34008KT 10/09 A2990 RMK AO2 P0001
Loading
Personal Weather Stations






























Interactive Weather Map New forecast layout! Learn more

10-Day Weather Forecast

Advertisements
Track Severe Weather on mobile